Time,TemperatureF,DewpointF,PressureIn,WindDirection,WindDirectionDegrees,WindSpeedMPH,WindSpeedGustMPH,Humidity,HourlyPrecipIn,Conditions,Clouds,dailyrainin,SoftwareType,DateUTC
2013-02-17 00:00:00,25.6,9.1,29.72,NW,322,11.1,19.6,49,0.00,RA,,0.00,WeatherDisplay:10.37,2013-02-17 05:00:00,
2013-02-17 00:05:00,25.6,10.0,29.71,North,350,5.3,5.8,51,0.00,RA,,0.00,WeatherDisplay:10.37,2013-02-17 05:05:00,
2013-02-17 00:07:00,25.6,10.0,29.71,NNW,336,5.3,8.1,51,0.00,RA,,0.00,WeatherDisplay:10.37,2013-02-17 05:07:00,
2013-02-17 00:12:00,25.4,9.8,29.71,North,0,9.4,12.7,51,0.00,CLR,,0.00,WeatherDisplay:10.37,2013-02-17 05:12:00,
2013-02-17 00:17:00,25.4,9.8,29.71,North,353,4.7,5.8,51,0.00,CLR,,0.00,WeatherDisplay:10.37,2013-02-17 05:17:00,
2013-02-17 00:22:00,25.4,9.3,29.71,WNW,299,4.9,7.0,50,0.00,CLR,,0.00,WeatherDisplay:10.37,2013-02-17 05:22:00,
2013-02-17 00:27:00,25.3,9.2,29.70,North,0,6.2,8.1,50,0.00,CLR,,0.00,WeatherDisplay:10.37,2013-02-17 05:27:00,
2013-02-17 00:33:00,25.3,9.2,29.70,North,354,7.3,19.6,50,0.00,CLR,,0.00,WeatherDisplay:10.37,2013-02-17 05:33:00,
2013-02-17 00:38:00,25.3,8.8,29.70,North,356,7.1,11.5,49,0.00,CLR,,0.00,WeatherDisplay:10.37,2013-02-17 05:38:00,
2013-02-17 00:43:00,25.3,9.2,29.70,North,356,7.3,11.5,50,0.00,CLR,,0.00,WeatherDisplay:10.37,2013-02-17 05:43:00,
2013-02-17 00:48:00,25.1,8.6,29.70,North,0,14.8,20.7,49,0.00,CLR,,0.00,WeatherDisplay:10.37,2013-02-17 05:48:00,
2013-02-17 00:53:00,25.1,9.0,29.69,North,0,5.7,11.5,50,0.00,CLR,,0.00,WeatherDisplay:10.37,2013-02-17 05:53:00,
2013-02-17 00:58:00,25.1,8.6,29.69,NNW,347,6.1,11.5,49,0.00,CLR,,0.00,WeatherDisplay:10.37,2013-02-17 05:58:00,
2013-02-17 01:03:00,25.1,8.6,29.69,North,356,9.0,11.5,49,0.00,CLR,,0.00,WeatherDisplay:10.37,2013-02-17 06:03:00,
2013-02-17 01:08:00,25.1,8.6,29.68,North,0,9.7,11.5,49,0.00,CLR,,0.00,WeatherDisplay:10.37,2013-02-17 06:08:00,
2013-02-17 01:14:00,25.1,9.0,29.68,North,349,6.1,11.5,50,0.00,CLR,,0.00,WeatherDisplay:10.37,2013-02-17 06:14:00,
2013-02-17 01:19:00,25.0,8.5,29.68,NNW,347,6.7,11.5,49,0.00,CLR,,0.00,WeatherDisplay:10.37,2013-02-17 06:19:00,
2013-02-17 01:24:00,25.1,9.0,29.68,North,0,6.9,18.4,50,0.00,CLR,,0.00,WeatherDisplay:10.37,2013-02-17 06:24:00,
2013-02-17 01:29:00,25.1,8.6,29.68,North,354,7.6,19.6,49,0.00,CLR,,0.00,WeatherDisplay:10.37,2013-02-17 06:29:00,
2013-02-17 01:34:00,25.1,7.7,29.68,NW,318,8.5,16.1,47,0.00,CLR,,0.00,WeatherDisplay:10.37,2013-02-17 06:34:00,
2013-02-17 01:39:00,25.1,8.1,29.68,North,0,7.4,11.5,48,0.00,CLR,,0.00,WeatherDisplay:10.37,2013-02-17 06:39:00,
2013-02-17 01:44:00,25.0,8.0,29.68,North,353,5.8,9.2,48,0.00,CLR,,0.00,WeatherDisplay:10.37,2013-02-17 06:44:00,
2013-02-17 01:50:00,25.0,8.0,29.68,North,353,10.5,17.3,48,0.00,CLR,,0.00,WeatherDisplay:10.37,2013-02-17 06:50:00,
2013-02-17 01:55:00,25.0,8.0,29.69,North,1,12.7,17.3,48,0.00,CLR,,0.00,WeatherDisplay:10.37,2013-02-17 06:55:00,
2013-02-17 02:00:00,25.0,8.5,29.69,North,352,6.5,8.1,49,0.00,CLR,,0.00,WeatherDisplay:10.37,2013-02-17 07:00:00,
2013-02-17 02:05:00,25.0,8.5,29.68,North,6,7.5,13.0,49,0.00,CLR,,0.00,WeatherDisplay:10.37,2013-02-17 07:05:00,
2013-02-17 02:10:00,25.0,9.0,29.68,NNW,347,4.8,8.1,50,0.00,CLR,,0.00,WeatherDisplay:10.37,2013-02-17 07:10:00,
2013-02-17 02:15:00,25.0,8.5,29.68,North,356,7.4,17.3,49,0.00,CLR,,0.00,WeatherDisplay:10.37,2013-02-17 07:15:00,
2013-02-17 02:20:00,24.8,8.3,29.68,NNW,333,10.8,16.0,49,0.00,CLR,,0.00,WeatherDisplay:10.37,2013-02-17 07:20:00,
2013-02-17 02:26:00,25.0,8.5,29.68,NNW,342,9.3,14.0,49,0.00,CLR,,0.00,WeatherDisplay:10.37,2013-02-17 07:26:00,
2013-02-17 02:31:00,25.0,8.5,29.68,North,354,8.5,12.7,49,0.00,CLR,,0.00,WeatherDisplay:10.37,2013-02-17 07:31:00,
2013-02-17 02:36:00,24.8,8.3,29.68,North,0,9.9,19.6,49,0.00,CLR,,0.00,WeatherDisplay:10.37,2013-02-17 07:36:00,
2013-02-17 02:41:00,24.8,8.3,29.68,North,0,8.9,11.5,49,0.00,CLR,,0.00,WeatherDisplay:10.37,2013-02-17 07:41:00,
2013-02-17 02:46:00,24.8,8.8,29.67,North,359,5.6,6.9,50,0.00,CLR,,0.00,WeatherDisplay:10.37,2013-02-17 07:46:00,
2013-02-17 02:52:00,24.8,8.8,29.67,North,356,4.7,6.9,50,0.00,CLR,,0.00,WeatherDisplay:10.37,2013-02-17 07:52:00,
2013-02-17 02:57:00,24.8,6.9,29.67,North,0,12.9,19.6,46,0.00,CLR,,0.00,WeatherDisplay:10.37,2013-02-17 07:57:00,
2013-02-17 03:02:00,24.8,7.9,29.67,North,0,8.5,17.3,48,0.00,CLR,,0.00,WeatherDisplay:10.37,2013-02-17 08:02:00,
2013-02-17 03:07:00,24.7,7.3,29.66,NNW,344,8.0,16.1,47,0.00,CLR,,0.00,WeatherDisplay:10.37,2013-02-17 08:07:00,
2013-02-17 03:12:00,24.7,7.8,29.66,North,0,7.0,11.5,48,0.00,CLR,,0.00,WeatherDisplay:10.37,2013-02-17 08:12:00,
2013-02-17 03:17:00,24.7,7.3,29.66,NNW,344,10.8,11.5,47,0.00,CLR,,0.00,WeatherDisplay:10.37,2013-02-17 08:17:00,
2013-02-17 03:22:00,24.7,7.8,29.67,North,352,4.9,8.0,48,0.00,CLR,,0.00,WeatherDisplay:10.37,2013-02-17 08:22:00,
2013-02-17 03:27:00,24.7,7.3,29.67,North,0,3.4,8.1,47,0.00,CLR,,0.00,WeatherDisplay:10.37,2013-02-17 08:27:00,
2013-02-17 03:32:00,24.5,6.6,29.67,North,356,6.0,10.4,46,0.00,CLR,,0.00,WeatherDisplay:10.37,2013-02-17 08:32:00,
2013-02-17 03:38:00,24.5,6.6,29.67,NNW,333,3.9,6.9,46,0.00,CLR,,0.00,WeatherDisplay:10.37,2013-02-17 08:38:00,
2013-02-17 03:43:00,24.4,6.6,29.67,North,0,8.1,13.8,46,0.00,CLR,,0.00,WeatherDisplay:10.37,2013-02-17 08:43:00,
2013-02-17 03:48:00,24.4,6.6,29.67,NNW,346,7.7,11.0,46,0.00,CLR,,0.00,WeatherDisplay:10.37,2013-02-17 08:48:00,
2013-02-17 03:53:00,24.4,6.6,29.67,NNW,340,4.7,5.8,46,0.00,CLR,,0.00,WeatherDisplay:10.37,2013-02-17 08:53:00,
2013-02-17 03:58:00,24.2,5.4,29.67,NNW,330,4.8,8.1,44,0.00,CLR,,0.00,WeatherDisplay:10.37,2013-02-17 08:58:00,
2013-02-17 04:03:00,24.2,5.9,29.67,North,353,5.7,11.5,45,0.00,CLR,,0.00,WeatherDisplay:10.37,2013-02-17 09:03:00,
2013-02-17 04:08:00,24.2,4.4,29.67,North,0,6.9,13.8,42,0.00,CLR,,0.00,WeatherDisplay:10.37,2013-02-17 09:08:00,
2013-02-17 04:13:00,24.2,5.9,29.67,NNW,347,5.0,6.9,45,0.00,CLR,,0.00,WeatherDisplay:10.37,2013-02-17 09:13:00,
2013-02-17 04:18:00,24.1,5.8,29.67,NNE,14,5.6,10.0,45,0.00,CLR,,0.00,WeatherDisplay:10.37,2013-02-17 09:18:00,
2013-02-17 04:24:00,24.1,3.8,29.67,NNE,18,6.4,15.0,41,0.00,CLR,,0.00,WeatherDisplay:10.37,2013-02-17 09:24:00,
2013-02-17 04:29:00,24.1,4.8,29.67,NNW,336,4.1,5.8,43,0.00,CLR,,0.00,WeatherDisplay:10.37,2013-02-17 09:29:00,
2013-02-17 04:34:00,23.9,4.6,29.67,North,354,6.5,8.0,43,0.00,CLR,,0.00,WeatherDisplay:10.37,2013-02-17 09:34:00,
2013-02-17 04:39:00,23.9,5.6,29.67,North,0,4.9,5.8,45,0.00,CLR,,0.00,WeatherDisplay:10.37,2013-02-17 09:39:00,
2013-02-17 04:44:00,23.9,4.1,29.68,North,353,5.1,9.2,42,0.00,CLR,,0.00,WeatherDisplay:10.37,2013-02-17 09:44:00,
2013-02-17 04:50:00,23.9,4.1,29.67,NNE,17,6.1,8.1,42,0.00,CLR,,0.00,WeatherDisplay:10.37,2013-02-17 09:50:00,
2013-02-17 04:55:00,23.8,4.5,29.67,NNW,336,3.3,6.9,43,0.00,CLR,,0.00,WeatherDisplay:10.37,2013-02-17 09:55:00,
2013-02-17 05:00:00,23.8,4.5,29.67,NNW,335,4.9,8.0,43,0.00,CLR,,0.00,WeatherDisplay:10.37,2013-02-17 10:00:00,
2013-02-17 05:05:00,23.8,4.5,29.67,North,0,6.1,6.9,43,0.00,CLR,,0.00,WeatherDisplay:10.37,2013-02-17 10:05:00,
2013-02-17 05:10:00,23.6,4.3,29.67,NNW,346,4.4,6.9,43,0.00,CLR,,0.00,WeatherDisplay:10.37,2013-02-17 10:10:00,
2013-02-17 05:15:00,23.6,4.3,29.67,NNW,332,3.8,8.1,43,0.00,CLR,,0.00,WeatherDisplay:10.37,2013-02-17 10:15:00,
2013-02-17 05:21:00,23.6,4.3,29.67,NNW,344,7.2,8.1,43,0.00,CLR,,0.00,WeatherDisplay:10.37,2013-02-17 10:21:00,
2013-02-17 05:26:00,23.5,4.8,29.67,NW,313,6.4,8.1,44,0.00,CLR,,0.00,WeatherDisplay:10.37,2013-02-17 10:26:00,
2013-02-17 05:31:00,23.5,4.2,29.67,NNW,335,2.7,6.9,43,0.00,CLR,,0.00,WeatherDisplay:10.37,2013-02-17 10:31:00,
2013-02-17 05:36:00,23.3,4.1,29.67,NNW,330,6.0,12.7,43,0.00,CLR,,0.00,WeatherDisplay:10.37,2013-02-17 10:36:00,
2013-02-17 05:41:00,23.3,3.6,29.67,NNW,337,7.4,12.0,42,0.00,CLR,,0.00,WeatherDisplay:10.37,2013-02-17 10:41:00,
2013-02-17 05:46:00,23.3,3.6,29.67,North,0,8.0,11.5,42,0.00,CLR,,0.00,WeatherDisplay:10.37,2013-02-17 10:46:00,
2013-02-17 05:52:00,23.3,4.6,29.67,North,359,7.8,18.4,44,0.00,CLR,,0.00,WeatherDisplay:10.37,2013-02-17 10:52:00,
2013-02-17 05:57:00,23.2,4.5,29.67,NNW,347,7.0,9.0,44,0.00,CLR,,0.00,WeatherDisplay:10.37,2013-02-17 10:57:00,
2013-02-17 06:02:00,23.2,4.0,29.67,NW,325,7.8,11.5,43,0.00,CLR,,0.00,WeatherDisplay:10.37,2013-02-17 11:02:00,
2013-02-17 06:07:00,23.0,3.8,29.67,North,352,4.7,6.0,43,0.00,CLR,,0.00,WeatherDisplay:10.37,2013-02-17 11:07:00,
2013-02-17 06:12:00,23.0,4.3,29.67,NNW,329,5.3,6.9,44,0.00,CLR,,0.00,WeatherDisplay:10.37,2013-02-17 11:12:00,
2013-02-17 06:17:00,22.9,3.7,29.67,NNW,347,7.9,8.1,43,0.00,CLR,,0.00,WeatherDisplay:10.37,2013-02-17 11:17:00,
2013-02-17 06:22:00,22.9,4.2,29.67,WSW,253,3.6,6.9,44,0.00,CLR,,0.00,WeatherDisplay:10.37,2013-02-17 11:22:00,
2013-02-17 06:27:00,22.9,3.7,29.67,North,0,7.3,12.7,43,0.00,CLR,,0.00,WeatherDisplay:10.37,2013-02-17 11:27:00,
2013-02-17 06:33:00,22.9,4.2,29.67,WNW,284,3.6,11.5,44,0.00,CLR,,0.00,WeatherDisplay:10.37,2013-02-17 11:33:00,
2013-02-17 06:38:00,22.7,4.0,29.67,NW,325,1.5,5.8,44,0.00,CLR,,0.00,WeatherDisplay:10.37,2013-02-17 11:38:00,
2013-02-17 06:43:00,22.5,4.3,29.67,North,354,6.6,9.2,45,0.00,CLR,,0.00,WeatherDisplay:10.37,2013-02-17 11:43:00,
2013-02-17 06:48:00,22.4,3.2,29.67,North,4,7.5,11.5,43,0.00,CLR,,0.00,WeatherDisplay:10.37,2013-02-17 11:48:00,
2013-02-17 06:54:00,22.4,3.7,29.67,WNW,295,4.4,8.1,44,0.00,CLR,,0.00,WeatherDisplay:10.37,2013-02-17 11:54:00,
2013-02-17 06:59:00,22.4,3.2,29.67,NNW,344,10.5,11.5,43,0.00,CLR,,0.00,WeatherDisplay:10.37,2013-02-17 11:59:00,
2013-02-17 07:04:00,22.4,3.2,29.67,North,353,6.8,10.4,43,0.00,CLR,,0.00,WeatherDisplay:10.37,2013-02-17 12:04:00,
2013-02-17 07:09:00,22.4,3.2,29.67,NW,325,4.1,6.9,43,0.00,CLR,,0.00,WeatherDisplay:10.37,2013-02-17 12:09:00,
2013-02-17 07:14:00,22.2,2.6,29.66,NW,323,6.1,13.8,42,0.00,CLR,,0.00,WeatherDisplay:10.37,2013-02-17 12:14:00,
2013-02-17 07:20:00,22.2,3.1,29.67,North,354,7.3,10.4,43,0.00,CLR,,0.00,WeatherDisplay:10.37,2013-02-17 12:20:00,
2013-02-17 07:25:00,22.2,3.6,29.67,NNW,344,3.4,8.1,44,0.00,CLR,,0.00,WeatherDisplay:10.37,2013-02-17 12:25:00,
2013-02-17 07:30:00,22.2,3.1,29.67,North,357,4.7,9.2,43,0.00,CLR,,0.00,WeatherDisplay:10.37,2013-02-17 12:30:00,
2013-02-17 07:35:00,22.1,3.0,29.67,North,349,7.0,12.7,43,0.00,CLR,,0.00,WeatherDisplay:10.37,2013-02-17 12:35:00,
2013-02-17 07:40:00,22.1,3.0,29.67,North,352,4.5,5.8,43,0.00,CLR,,0.00,WeatherDisplay:10.37,2013-02-17 12:40:00,
2013-02-17 07:45:00,22.1,3.0,29.68,NNW,347,9.9,17.3,43,0.00,CLR,,0.00,WeatherDisplay:10.37,2013-02-17 12:45:00,
2013-02-17 07:51:00,22.1,2.5,29.68,NW,309,7.9,16.1,42,0.00,CLR,,0.00,WeatherDisplay:10.37,2013-02-17 12:51:00,
2013-02-17 07:56:00,22.1,3.5,29.69,NNW,336,5.8,9.0,44,0.00,CLR,,0.00,WeatherDisplay:10.37,2013-02-17 12:56:00,
2013-02-17 08:01:00,21.9,3.3,29.69,NNW,346,10.5,18.4,44,0.00,CLR,,0.00,WeatherDisplay:10.37,2013-02-17 13:01:00,
2013-02-17 08:06:00,22.1,3.0,29.69,North,353,7.8,11.5,43,0.00,CLR,,0.00,WeatherDisplay:10.37,2013-02-17 13:06:00,
2013-02-17 08:11:00,22.2,3.1,29.69,NNW,340,6.6,8.1,43,0.00,CLR,,0.00,WeatherDisplay:10.37,2013-02-17 13:11:00,
2013-02-17 08:16:00,22.4,2.7,29.69,NNW,343,7.9,13.8,42,0.00,CLR,,0.00,WeatherDisplay:10.37,2013-02-17 13:16:00,
2013-02-17 08:21:00,22.5,2.3,29.68,NW,318,7.9,11.5,41,0.00,CLR,,0.00,WeatherDisplay:10.37,2013-02-17 13:21:00,
2013-02-17 08:26:00,22.7,3.5,29.68,NW,305,5.0,8.1,43,0.00,CLR,,0.00,WeatherDisplay:10.37,2013-02-17 13:26:00,
2013-02-17 08:32:00,22.7,3.0,29.68,NNW,340,4.5,6.9,42,0.00,CLR,,0.00,WeatherDisplay:10.37,2013-02-17 13:32:00,
2013-02-17 08:37:00,23.0,2.8,29.69,North,352,7.6,11.5,41,0.00,CLR,,0.00,WeatherDisplay:10.37,2013-02-17 13:37:00,
2013-02-17 08:42:00,23.0,2.8,29.68,NNE,32,4.8,6.9,41,0.00,CLR,,0.00,WeatherDisplay:10.37,2013-02-17 13:42:00,
2013-02-17 08:47:00,23.2,1.9,29.68,WNW,301,10.2,13.8,39,0.00,CLR,,0.00,WeatherDisplay:10.37,2013-02-17 13:47:00,
2013-02-17 08:52:00,23.0,3.8,29.68,NNW,335,10.5,12.7,43,0.00,CLR,,0.00,WeatherDisplay:10.37,2013-02-17 13:52:00,
2013-02-17 08:57:00,23.2,4.0,29.68,NW,305,6.1,13.8,43,0.00,CLR,,0.00,WeatherDisplay:10.37,2013-02-17 13:57:00,
2013-02-17 09:03:00,23.0,3.3,29.68,NNW,335,9.9,16.1,42,0.00,CLR,,0.00,WeatherDisplay:10.37,2013-02-17 14:03:00,
2013-02-17 09:08:00,23.0,3.3,29.68,WNW,302,7.3,10.4,42,0.00,CLR,,0.00,WeatherDisplay:10.37,2013-02-17 14:08:00,
2013-02-17 09:13:00,23.0,3.3,29.68,NW,311,11.9,19.6,42,0.00,CLR,,0.00,WeatherDisplay:10.37,2013-02-17 14:13:00,
2013-02-17 09:18:00,23.3,3.6,29.68,NNW,335,9.3,19.6,42,0.00,CLR,,0.00,WeatherDisplay:10.37,2013-02-17 14:18:00,
2013-02-17 09:23:00,23.2,3.5,29.68,NNW,328,8.3,13.0,42,0.00,CLR,,0.00,WeatherDisplay:10.37,2013-02-17 14:23:00,
2013-02-17 09:28:00,23.5,3.2,29.69,North,356,7.5,17.3,41,0.00,CLR,,0.00,WeatherDisplay:10.37,2013-02-17 14:28:00,
2013-02-17 09:34:00,23.5,4.2,29.69,North,349,6.7,11.5,43,0.00,CLR,,0.00,WeatherDisplay:10.37,2013-02-17 14:34:00,
2013-02-17 09:39:00,23.9,3.6,29.69,NNW,332,8.9,17.3,41,0.00,CLR,,0.00,WeatherDisplay:10.37,2013-02-17 14:39:00,
2013-02-17 09:44:00,24.1,3.8,29.69,NW,309,8.3,11.5,41,0.00,CLR,,0.00,WeatherDisplay:10.37,2013-02-17 14:44:00,
2013-02-17 09:49:00,24.1,2.7,29.69,North,353,8.8,17.3,39,0.00,CLR,,0.00,WeatherDisplay:10.37,2013-02-17 14:49:00,
2013-02-17 09:54:00,24.5,4.6,29.69,North,350,7.2,11.5,42,0.00,CLR,,0.00,WeatherDisplay:10.37,2013-02-17 14:54:00,
2013-02-17 09:59:00,24.7,4.3,29.69,NNW,339,8.8,16.1,41,0.00,CLR,,0.00,WeatherDisplay:10.37,2013-02-17 14:59:00,
2013-02-17 10:04:00,24.7,3.2,29.69,North,353,8.6,11.5,39,0.00,CLR,,0.00,WeatherDisplay:10.37,2013-02-17 15:04:00,
2013-02-17 10:09:00,24.5,1.9,29.69,WNW,295,10.9,13.0,37,0.00,CLR,,0.00,WeatherDisplay:10.37,2013-02-17 15:09:00,
2013-02-17 10:14:00,25.0,3.5,29.69,NW,316,6.9,11.5,39,0.00,CLR,,0.00,WeatherDisplay:10.37,2013-02-17 15:14:00,
2013-02-17 10:19:00,24.8,3.3,29.69,NW,316,8.2,13.0,39,0.00,CLR,,0.00,WeatherDisplay:10.37,2013-02-17 15:19:00,
2013-02-17 10:24:00,24.5,3.6,29.69,North,350,13.6,17.0,40,0.00,CLR,,0.00,WeatherDisplay:10.37,2013-02-17 15:24:00,
2013-02-17 10:30:00,24.7,3.8,29.69,WNW,295,6.9,17.3,40,0.00,CLR,,0.00,WeatherDisplay:10.37,2013-02-17 15:30:00,
2013-02-17 10:35:00,25.1,3.6,29.69,NW,323,8.7,12.7,39,0.00,CLR,,0.00,WeatherDisplay:10.37,2013-02-17 15:35:00,
2013-02-17 10:40:00,25.0,2.9,29.69,SW,236,15.1,19.6,38,0.00,CLR,,0.00,WeatherDisplay:10.37,2013-02-17 15:40:00,
2013-02-17 10:45:00,25.0,4.6,29.69,North,356,9.7,21.9,41,0.00,CLR,,0.00,WeatherDisplay:10.37,2013-02-17 15:45:00,
2013-02-17 10:50:00,25.3,5.9,29.70,NNW,344,7.3,11.5,43,0.00,CLR,,0.00,WeatherDisplay:10.37,2013-02-17 15:50:00,
2013-02-17 10:55:00,25.8,4.2,29.70,NNW,328,6.0,10.4,39,0.00,CLR,,0.00,WeatherDisplay:10.37,2013-02-17 15:55:00,
2013-02-17 11:01:00,25.7,4.7,29.70,WSW,256,8.1,12.7,40,0.00,CLR,,0.00,WeatherDisplay:10.37,2013-02-17 16:01:00,
2013-02-17 11:06:00,26.0,4.4,29.70,NNW,339,10.5,12.7,39,0.00,CLR,,0.00,WeatherDisplay:10.37,2013-02-17 16:06:00,
2013-02-17 11:11:00,25.6,4.0,29.70,NW,318,12.9,19.6,39,0.00,CLR,,0.00,WeatherDisplay:10.37,2013-02-17 16:11:00,
2013-02-17 11:16:00,25.8,4.8,29.70,WNW,301,3.4,11.5,40,0.00,CLR,,0.00,WeatherDisplay:10.37,2013-02-17 16:16:00,
2013-02-17 11:21:00,26.6,6.0,29.70,WNW,288,6.6,8.1,41,0.00,CLR,,0.00,WeatherDisplay:10.37,2013-02-17 16:21:00,
2013-02-17 11:26:00,26.1,2.7,29.70,NNW,339,16.5,21.9,36,0.00,CLR,,0.00,WeatherDisplay:10.37,2013-02-17 16:26:00,
2013-02-17 11:32:00,25.8,3.6,29.70,NNW,332,10.5,14.0,38,0.00,CLR,,0.00,WeatherDisplay:10.37,2013-02-17 16:32:00,
2013-02-17 11:37:00,26.0,4.9,29.70,NNW,337,9.6,19.6,40,0.00,CLR,,0.00,WeatherDisplay:10.37,2013-02-17 16:37:00,
2013-02-17 11:42:00,26.0,2.0,29.70,NNW,344,11.4,21.9,35,0.00,CLR,,0.00,WeatherDisplay:10.37,2013-02-17 16:42:00,
2013-02-17 11:47:00,26.0,6.0,29.70,NNW,346,9.3,17.3,42,0.00,CLR,,0.00,WeatherDisplay:10.37,2013-02-17 16:47:00,
2013-02-17 11:52:00,26.1,5.0,29.70,WNW,296,5.1,11.0,40,0.00,CLR,,0.00,WeatherDisplay:10.37,2013-02-17 16:52:00,
2013-02-17 11:57:00,26.9,2.8,29.69,WNW,296,8.8,13.8,35,0.00,CLR,,0.00,WeatherDisplay:10.37,2013-02-17 16:57:00,
2013-02-17 12:02:00,27.5,5.7,29.70,NW,326,4.3,11.5,39,0.00,CLR,,0.00,WeatherDisplay:10.37,2013-02-17 17:02:00,
2013-02-17 12:08:00,27.0,4.7,29.70,North,359,11.1,19.6,38,0.00,CLR,,0.00,WeatherDisplay:10.37,2013-02-17 17:08:00,
2013-02-17 12:13:00,26.4,5.8,29.70,North,349,9.6,18.4,41,0.00,CLR,,0.00,WeatherDisplay:10.37,2013-02-17 17:13:00,
2013-02-17 12:18:00,26.3,5.2,29.70,North,354,6.3,11.5,40,0.00,CLR,,0.00,WeatherDisplay:10.37,2013-02-17 17:18:00,
2013-02-17 12:23:00,26.7,2.7,29.70,North,0,13.7,19.6,35,0.00,CLR,,0.00,WeatherDisplay:10.37,2013-02-17 17:23:00,
2013-02-17 12:28:00,26.7,4.5,29.69,North,0,7.8,17.3,38,0.00,CLR,,0.00,WeatherDisplay:10.37,2013-02-17 17:28:00,
2013-02-17 12:33:00,26.4,3.6,29.69,WNW,298,15.1,20.7,37,0.00,CLR,,0.00,WeatherDisplay:10.37,2013-02-17 17:33:00,
2013-02-17 12:38:00,26.1,2.1,29.69,WNW,289,11.8,24.2,35,0.00,CLR,,0.00,WeatherDisplay:10.37,2013-02-17 17:38:00,
2013-02-17 12:43:00,26.6,4.9,29.70,NNW,340,4.9,11.5,39,0.00,CLR,,0.00,WeatherDisplay:10.37,2013-02-17 17:43:00,
2013-02-17 12:48:00,26.9,4.6,29.69,NNW,333,7.9,11.5,38,0.00,CLR,,0.00,WeatherDisplay:10.37,2013-02-17 17:48:00,
2013-02-17 12:54:00,26.9,3.5,29.69,North,356,9.7,17.3,36,0.00,CLR,,0.00,WeatherDisplay:10.37,2013-02-17 17:54:00,
2013-02-17 12:59:00,26.9,2.8,29.69,NNW,336,16.5,24.0,35,0.00,CLR,,0.00,WeatherDisplay:10.37,2013-02-17 17:59:00,
2013-02-17 13:04:00,26.7,4.5,29.69,West,272,8.8,11.5,38,0.00,CLR,,0.00,WeatherDisplay:10.37,2013-02-17 18:04:00,
2013-02-17 13:09:00,26.6,3.2,29.69,North,356,15.3,18.4,36,0.00,CLR,,0.00,WeatherDisplay:10.37,2013-02-17 18:09:00,
2013-02-17 13:15:00,26.4,3.6,29.70,NNW,330,13.7,19.6,37,0.00,CLR,,0.00,WeatherDisplay:10.37,2013-02-17 18:15:00,
2013-02-17 13:20:00,26.7,2.7,29.70,NW,304,12.8,19.6,35,0.00,CLR,,0.00,WeatherDisplay:10.37,2013-02-17 18:20:00,
2013-02-17 13:25:00,26.4,2.4,29.70,WNW,299,12.3,21.9,35,0.00,CLR,,0.00,WeatherDisplay:10.37,2013-02-17 18:25:00,
2013-02-17 13:30:00,26.1,2.1,29.71,North,0,11.9,25.3,35,0.00,CLR,,0.00,WeatherDisplay:10.37,2013-02-17 18:30:00,
2013-02-17 13:35:00,25.7,4.7,29.71,West,277,14.7,17.0,40,0.00,CLR,,0.00,WeatherDisplay:10.37,2013-02-17 18:35:00,
2013-02-17 13:41:00,26.0,3.2,29.71,NNW,328,9.6,17.3,37,0.00,CLR,,0.00,WeatherDisplay:10.37,2013-02-17 18:41:00,
2013-02-17 13:46:00,26.1,3.3,29.71,NW,323,10.4,16.1,37,0.00,CLR,,0.00,WeatherDisplay:10.37,2013-02-17 18:46:00,
2013-02-17 13:51:00,26.9,4.6,29.72,WNW,298,9.9,11.5,38,0.00,CLR,,0.00,WeatherDisplay:10.37,2013-02-17 18:51:00,
2013-02-17 13:56:00,26.9,2.8,29.72,NW,311,9.0,26.5,35,0.00,CLR,,0.00,WeatherDisplay:10.37,2013-02-17 18:56:00,
2013-02-17 14:01:00,26.9,2.2,29.71,WNW,289,19.7,19.7,34,0.00,CLR,,0.00,WeatherDisplay:10.37,2013-02-17 19:01:00,
2013-02-17 14:07:00,26.1,3.9,29.72,NNW,336,3.3,11.5,38,0.00,CLR,,0.00,WeatherDisplay:10.37,2013-02-17 19:07:00,
2013-02-17 14:12:00,26.1,4.5,29.72,NW,315,13.2,17.3,39,0.00,CLR,,0.00,WeatherDisplay:10.37,2013-02-17 19:12:00,
2013-02-17 14:17:00,25.8,4.2,29.72,West,280,11.1,16.1,39,0.00,CLR,,0.00,WeatherDisplay:10.37,2013-02-17 19:17:00,
2013-02-17 14:22:00,25.4,2.7,29.72,NW,315,12.6,21.9,37,0.00,CLR,,0.00,WeatherDisplay:10.37,2013-02-17 19:22:00,
2013-02-17 14:27:00,25.1,2.4,29.72,North,0,10.7,21.9,37,0.00,CLR,,0.00,WeatherDisplay:10.37,2013-02-17 19:27:00,
2013-02-17 14:32:00,25.0,2.3,29.72,NW,319,14.6,19.6,37,0.00,CLR,,0.00,WeatherDisplay:10.37,2013-02-17 19:32:00,
2013-02-17 14:37:00,24.7,1.5,29.72,North,6,13.2,24.2,36,0.00,CLR,,0.00,WeatherDisplay:10.37,2013-02-17 19:37:00,
2013-02-17 14:42:00,24.5,3.0,29.73,West,278,11.4,16.0,39,0.00,CLR,,0.00,WeatherDisplay:10.37,2013-02-17 19:42:00,
2013-02-17 14:48:00,24.4,2.9,29.73,NNW,333,14.4,19.6,39,0.00,CLR,,0.00,WeatherDisplay:10.37,2013-02-17 19:48:00,
2013-02-17 14:53:00,24.5,1.3,29.73,WNW,302,10.8,18.4,36,0.00,CLR,,0.00,WeatherDisplay:10.37,2013-02-17 19:53:00,
2013-02-17 14:58:00,24.5,2.5,29.73,NNW,337,12.9,16.1,38,0.00,CLR,,0.00,WeatherDisplay:10.37,2013-02-17 19:58:00,
2013-02-17 15:03:00,24.5,3.0,29.73,North,0,12.7,18.4,39,0.00,CLR,,0.00,WeatherDisplay:10.37,2013-02-17 20:03:00,
2013-02-17 15:08:00,25.0,2.9,29.73,North,0,10.7,19.6,38,0.00,CLR,,0.00,WeatherDisplay:10.37,2013-02-17 20:08:00,
2013-02-17 15:13:00,25.0,4.0,29.74,WNW,292,15.2,24.2,40,0.00,CLR,,0.00,WeatherDisplay:10.37,2013-02-17 20:13:00,
2013-02-17 15:18:00,24.4,6.1,29.74,WNW,294,12.9,19.6,45,0.00,CLR,,0.00,WeatherDisplay:10.37,2013-02-17 20:18:00,
2013-02-17 15:24:00,24.2,5.9,29.74,WNW,301,11.4,19.6,45,0.00,CLR,,0.00,WeatherDisplay:10.37,2013-02-17 20:24:00,
2013-02-17 15:29:00,24.2,7.8,29.75,NNW,330,4.8,6.9,49,0.00,CLR,,0.00,WeatherDisplay:10.37,2013-02-17 20:29:00,
2013-02-17 15:34:00,24.4,5.6,29.74,NNW,337,8.8,13.8,44,0.00,CLR,,0.00,WeatherDisplay:10.37,2013-02-17 20:34:00,
2013-02-17 15:39:00,24.1,6.3,29.74,NNE,31,11.6,18.4,46,0.00,CLR,,0.00,WeatherDisplay:10.37,2013-02-17 20:39:00,
2013-02-17 15:44:00,23.8,7.4,29.75,North,0,10.6,13.8,49,0.00,CLR,,0.00,WeatherDisplay:10.37,2013-02-17 20:44:00,
2013-02-17 15:49:00,23.6,6.3,29.75,North,0,10.5,19.6,47,0.00,CLR,,0.00,WeatherDisplay:10.37,2013-02-17 20:49:00,
2013-02-17 15:54:00,23.6,6.8,29.75,NNW,339,8.6,17.3,48,0.00,CLR,,0.00,WeatherDisplay:10.37,2013-02-17 20:54:00,
2013-02-17 15:59:00,23.8,7.8,29.75,NNW,346,7.4,11.5,50,0.00,CLR,,0.00,WeatherDisplay:10.37,2013-02-17 20:59:00,
2013-02-17 16:05:00,23.8,7.4,29.75,NNW,347,7.8,11.5,49,0.00,CLR,,0.00,WeatherDisplay:10.37,2013-02-17 21:05:00,
2013-02-17 16:10:00,23.6,5.8,29.76,North,0,13.0,20.0,46,0.00,CLR,,0.00,WeatherDisplay:10.37,2013-02-17 21:10:00,
2013-02-17 16:15:00,23.6,6.8,29.76,North,352,11.1,19.6,48,0.00,CLR,,0.00,WeatherDisplay:10.37,2013-02-17 21:15:00,
2013-02-17 16:20:00,23.5,5.7,29.76,NW,309,8.0,11.5,46,0.00,CLR,,0.00,WeatherDisplay:10.37,2013-02-17 21:20:00,
2013-02-17 16:25:00,23.5,6.2,29.76,NNW,340,9.3,13.0,47,0.00,CLR,,0.00,WeatherDisplay:10.37,2013-02-17 21:25:00,
2013-02-17 16:30:00,23.5,5.2,29.76,NNW,333,9.3,16.1,45,0.00,CLR,,0.00,WeatherDisplay:10.37,2013-02-17 21:30:00,
2013-02-17 16:35:00,23.8,5.0,29.76,WNW,295,10.3,18.4,44,0.00,CLR,,0.00,WeatherDisplay:10.37,2013-02-17 21:35:00,
2013-02-17 16:40:00,23.8,5.5,29.77,WNW,288,9.9,13.8,45,0.00,CLR,,0.00,WeatherDisplay:10.37,2013-02-17 21:40:00,
2013-02-17 16:45:00,23.9,4.6,29.77,NNW,328,8.2,19.6,43,0.00,CLR,,0.00,WeatherDisplay:10.37,2013-02-17 21:45:00,
2013-02-17 16:50:00,23.6,6.8,29.78,NW,318,7.0,11.5,48,0.00,CLR,,0.00,WeatherDisplay:10.37,2013-02-17 21:50:00,
2013-02-17 16:56:00,23.3,6.5,29.78,North,0,9.1,12.7,48,0.00,CLR,,0.00,WeatherDisplay:10.37,2013-02-17 21:56:00,
2013-02-17 17:01:00,23.0,5.7,29.78,North,353,7.1,10.4,47,0.00,CLR,,0.00,WeatherDisplay:10.37,2013-02-17 22:01:00,
2013-02-17 17:06:00,22.9,6.1,29.78,WNW,296,6.5,8.1,48,0.00,CLR,,0.00,WeatherDisplay:10.37,2013-02-17 22:06:00,
2013-02-17 17:11:00,22.7,6.4,29.79,NNW,346,11.0,13.8,49,0.00,CLR,,0.00,WeatherDisplay:10.37,2013-02-17 22:11:00,
2013-02-17 17:16:00,22.4,6.5,29.79,NNW,329,13.3,18.4,50,0.00,CLR,,0.00,WeatherDisplay:10.37,2013-02-17 22:16:00,
2013-02-17 17:21:00,22.2,6.4,29.80,NW,304,11.5,14.0,50,0.00,CLR,,0.00,WeatherDisplay:10.37,2013-02-17 22:21:00,
2013-02-17 17:26:00,22.2,5.5,29.80,North,356,8.0,17.3,48,0.00,CLR,,0.00,WeatherDisplay:10.37,2013-02-17 22:26:00,
2013-02-17 17:32:00,21.9,6.9,29.80,NW,318,7.6,12.7,52,0.00,CLR,,0.00,WeatherDisplay:10.37,2013-02-17 22:32:00,
2013-02-17 17:37:00,21.4,6.5,29.81,North,359,11.6,16.1,52,0.00,CLR,,0.00,WeatherDisplay:10.37,2013-02-17 22:37:00,
2013-02-17 17:42:00,21.1,7.0,29.81,NNW,343,9.2,12.0,54,0.00,CLR,,0.00,WeatherDisplay:10.37,2013-02-17 22:42:00,
2013-02-17 17:47:00,20.8,6.7,29.81,WNW,284,10.1,16.1,54,0.00,CLR,,0.00,WeatherDisplay:10.37,2013-02-17 22:47:00,
2013-02-17 17:52:00,20.6,6.6,29.82,North,350,11.1,24.2,54,0.00,CLR,,0.00,WeatherDisplay:10.37,2013-02-17 22:52:00,
2013-02-17 17:57:00,20.5,6.5,29.82,NW,323,6.8,8.1,54,0.00,CLR,,0.00,WeatherDisplay:10.37,2013-02-17 22:57:00,
2013-02-17 18:02:00,20.5,6.5,29.83,NW,326,6.0,11.5,54,0.00,CLR,,0.00,WeatherDisplay:10.37,2013-02-17 23:02:00,
2013-02-17 18:07:00,20.3,6.3,29.83,NNW,330,7.3,12.7,54,0.00,CLR,,0.00,WeatherDisplay:10.37,2013-02-17 23:07:00,
2013-02-17 18:12:00,20.3,5.9,29.83,North,0,9.0,17.3,53,0.00,CLR,,0.00,WeatherDisplay:10.37,2013-02-17 23:12:00,
2013-02-17 18:18:00,20.2,5.8,29.83,North,0,9.8,16.1,53,0.00,CLR,,0.00,WeatherDisplay:10.37,2013-02-17 23:18:00,
2013-02-17 18:23:00,20.0,5.6,29.84,North,352,6.7,11.5,53,0.00,CLR,,0.00,WeatherDisplay:10.37,2013-02-17 23:23:00,
2013-02-17 18:28:00,20.0,6.0,29.84,NNW,346,7.0,11.5,54,0.00,CLR,,0.00,WeatherDisplay:10.37,2013-02-17 23:28:00,
2013-02-17 18:33:00,19.7,6.1,29.84,NW,315,9.9,18.4,55,0.00,CLR,,0.00,WeatherDisplay:10.37,2013-02-17 23:33:00,
2013-02-17 18:38:00,19.5,6.7,29.84,North,350,9.8,12.7,57,0.00,CLR,,0.00,WeatherDisplay:10.37,2013-02-17 23:38:00,
2013-02-17 18:44:00,19.4,6.6,29.84,NW,316,6.7,11.5,57,0.00,CLR,,0.00,WeatherDisplay:10.37,2013-02-17 23:44:00,
2013-02-17 18:49:00,19.4,6.2,29.85,WNW,302,7.7,13.8,56,0.00,CLR,,0.00,WeatherDisplay:10.37,2013-02-17 23:49:00,
2013-02-17 18:54:00,19.4,5.4,29.85,NNW,339,7.7,13.0,54,0.00,CLR,,0.00,WeatherDisplay:10.37,2013-02-17 23:54:00,
2013-02-17 18:59:00,19.2,4.8,29.85,North,357,6.0,16.1,53,0.00,CLR,,0.00,WeatherDisplay:10.37,2013-02-17 23:59:00,
2013-02-17 19:04:00,19.2,4.0,29.85,NNW,332,9.2,11.5,51,0.00,CLR,,0.00,WeatherDisplay:10.37,2013-02-18 00:04:00,
2013-02-17 19:09:00,19.4,1.0,29.85,North,356,13.7,21.9,44,0.00,CLR,,0.00,WeatherDisplay:10.37,2013-02-18 00:09:00,
2013-02-17 19:14:00,19.4,1.5,29.85,NW,312,3.8,11.5,45,0.00,CLR,,0.00,WeatherDisplay:10.37,2013-02-18 00:14:00,
2013-02-17 19:20:00,19.4,1.0,29.86,NNW,342,10.5,20.7,44,0.00,CLR,,0.00,WeatherDisplay:10.37,2013-02-18 00:20:00,
2013-02-17 19:25:00,19.2,0.3,29.86,NNW,340,11.9,19.6,43,0.00,CLR,,0.00,WeatherDisplay:10.37,2013-02-18 00:25:00,
2013-02-17 19:30:00,19.1,-0.3,29.87,NNW,337,11.2,16.1,42,0.00,CLR,,0.00,WeatherDisplay:10.37,2013-02-18 00:30:00,
2013-02-17 19:35:00,18.9,-0.5,29.87,NNW,337,7.2,12.7,42,0.00,CLR,,0.00,WeatherDisplay:10.37,2013-02-18 00:35:00,
2013-02-17 19:40:00,18.9,-0.5,29.88,NW,304,7.3,16.1,42,0.00,CLR,,0.00,WeatherDisplay:10.37,2013-02-18 00:40:00,
2013-02-17 19:45:00,18.8,-1.6,29.88,WNW,284,17.3,24.2,40,0.00,CLR,,0.00,WeatherDisplay:10.37,2013-02-18 00:45:00,
2013-02-17 19:51:00,18.6,-1.2,29.88,WNW,294,10.5,17.3,41,0.00,CLR,,0.00,WeatherDisplay:10.37,2013-02-18 00:51:00,
2013-02-17 19:56:00,18.6,-1.2,29.89,NW,312,10.3,15.0,41,0.00,CLR,,0.00,WeatherDisplay:10.37,2013-02-18 00:56:00,
2013-02-17 20:01:00,18.4,-0.4,29.90,North,0,5.8,8.1,43,0.00,CLR,,0.00,WeatherDisplay:10.37,2013-02-18 01:01:00,
2013-02-17 20:06:00,18.3,1.4,29.90,NW,326,6.9,11.0,47,0.00,CLR,,0.00,WeatherDisplay:10.37,2013-02-18 01:06:00,
2013-02-17 20:11:00,18.1,2.1,29.90,West,281,6.0,13.0,49,0.00,CLR,,0.00,WeatherDisplay:10.37,2013-02-18 01:11:00,
2013-02-17 20:17:00,17.8,1.8,29.90,NNW,340,9.8,13.8,49,0.00,CLR,,0.00,WeatherDisplay:10.37,2013-02-18 01:17:00,
2013-02-17 20:22:00,17.7,2.2,29.91,NW,323,5.5,8.1,50,0.00,CLR,,0.00,WeatherDisplay:10.37,2013-02-18 01:22:00,
2013-02-17 20:27:00,17.7,1.7,29.91,North,356,6.2,11.5,49,0.00,CLR,,0.00,WeatherDisplay:10.37,2013-02-18 01:27:00,
2013-02-17 20:32:00,17.5,1.6,29.92,NW,318,4.8,10.4,49,0.00,CLR,,0.00,WeatherDisplay:10.37,2013-02-18 01:32:00,
2013-02-17 20:37:00,17.3,0.9,29.92,NNW,335,9.1,13.8,48,0.00,CLR,,0.00,WeatherDisplay:10.37,2013-02-18 01:37:00,
2013-02-17 20:43:00,17.3,1.4,29.92,NNW,343,5.0,6.9,49,0.00,CLR,,0.00,WeatherDisplay:10.37,2013-02-18 01:43:00,
2013-02-17 20:48:00,17.2,1.3,29.93,North,353,7.0,10.4,49,0.00,CLR,,0.00,WeatherDisplay:10.37,2013-02-18 01:48:00,
2013-02-17 20:53:00,16.9,0.6,29.93,North,353,9.6,13.8,48,0.00,CLR,,0.00,WeatherDisplay:10.37,2013-02-18 01:53:00,
2013-02-17 20:58:00,16.7,1.3,29.93,North,356,6.6,9.2,50,0.00,CLR,,0.00,WeatherDisplay:10.37,2013-02-18 01:58:00,
2013-02-17 21:03:00,16.7,1.3,29.93,NW,323,8.4,8.4,50,0.00,CLR,,0.00,WeatherDisplay:10.37,2013-02-18 02:03:00,
2013-02-17 21:09:00,16.5,1.1,29.94,NNW,333,12.4,18.4,50,0.00,CLR,,0.00,WeatherDisplay:10.37,2013-02-18 02:09:00,
2013-02-17 21:14:00,16.5,1.1,29.94,North,0,2.6,7.0,50,0.00,CLR,,0.00,WeatherDisplay:10.37,2013-02-18 02:14:00,
2013-02-17 21:19:00,16.4,1.8,29.95,NNW,329,9.3,16.1,52,0.00,CLR,,0.00,WeatherDisplay:10.37,2013-02-18 02:19:00,
2013-02-17 21:24:00,16.1,0.7,29.95,North,353,14.7,19.6,50,0.00,CLR,,0.00,WeatherDisplay:10.37,2013-02-18 02:24:00,
2013-02-17 21:29:00,15.9,0.5,29.95,NNW,336,9.5,13.8,50,0.00,CLR,,0.00,WeatherDisplay:10.37,2013-02-18 02:29:00,
2013-02-17 21:34:00,15.7,1.2,29.95,NNW,340,6.1,10.4,52,0.00,CLR,,0.00,WeatherDisplay:10.37,2013-02-18 02:34:00,
2013-02-17 21:39:00,15.6,1.1,29.95,NNW,343,7.1,11.5,52,0.00,CLR,,0.00,WeatherDisplay:10.37,2013-02-18 02:39:00,
2013-02-17 21:44:00,15.6,0.2,29.95,NW,320,13.6,19.0,50,0.00,CLR,,0.00,WeatherDisplay:10.37,2013-02-18 02:44:00,
2013-02-17 21:49:00,15.6,-0.2,29.95,NNW,335,13.6,15.0,49,0.00,CLR,,0.00,WeatherDisplay:10.37,2013-02-18 02:49:00,
2013-02-17 21:54:00,15.6,-0.2,29.95,NNW,329,12.7,19.6,49,0.00,CLR,,0.00,WeatherDisplay:10.37,2013-02-18 02:54:00,
2013-02-17 21:59:00,15.4,-0.8,29.95,WNW,301,10.6,21.9,48,0.00,CLR,,0.00,WeatherDisplay:10.37,2013-02-18 02:59:00,
2013-02-17 22:05:00,15.4,-0.4,29.95,North,349,9.6,16.1,49,0.00,CLR,,0.00,WeatherDisplay:10.37,2013-02-18 03:05:00,
2013-02-17 22:10:00,15.2,-0.6,29.96,North,1,12.8,18.4,49,0.00,CLR,,0.00,WeatherDisplay:10.37,2013-02-18 03:10:00,
2013-02-17 22:15:00,15.2,-0.6,29.96,North,7,11.5,19.6,49,0.00,CLR,,0.00,WeatherDisplay:10.37,2013-02-18 03:15:00,
2013-02-17 22:20:00,15.2,-0.1,29.96,North,0,10.1,12.0,50,0.00,CLR,,0.00,WeatherDisplay:10.37,2013-02-18 03:20:00,
2013-02-17 22:25:00,15.1,-0.2,29.95,NW,322,10.5,16.1,50,0.00,CLR,,0.00,WeatherDisplay:10.37,2013-02-18 03:25:00,
2013-02-17 22:30:00,15.1,-0.2,29.95,NNW,344,12.9,19.6,50,0.00,CLR,,0.00,WeatherDisplay:10.37,2013-02-18 03:30:00,
2013-02-17 22:35:00,15.2,-0.1,29.95,WSW,251,10.2,19.6,50,0.00,CLR,,0.00,WeatherDisplay:10.37,2013-02-18 03:35:00,
2013-02-17 22:41:00,15.2,-0.1,29.95,NNW,328,10.8,13.8,50,0.00,CLR,,0.00,WeatherDisplay:10.37,2013-02-18 03:41:00,
2013-02-17 22:46:00,15.1,0.2,29.95,NNW,335,11.2,19.0,51,0.00,CLR,,0.00,WeatherDisplay:10.37,2013-02-18 03:46:00,
2013-02-17 22:51:00,15.1,0.2,29.96,NW,312,9.9,13.8,51,0.00,CLR,,0.00,WeatherDisplay:10.37,2013-02-18 03:51:00,
2013-02-17 22:56:00,15.1,0.2,29.95,West,281,9.2,20.7,51,0.00,CLR,,0.00,WeatherDisplay:10.37,2013-02-18 03:56:00,
2013-02-17 23:01:00,15.1,0.6,29.95,WNW,296,9.6,21.0,52,0.00,CLR,,0.00,WeatherDisplay:10.37,2013-02-18 04:01:00,
2013-02-17 23:06:00,15.1,0.6,29.96,WNW,301,9.7,16.1,52,0.00,CLR,,0.00,WeatherDisplay:10.37,2013-02-18 04:06:00,
2013-02-17 23:11:00,15.1,0.6,29.96,WNW,302,7.2,16.1,52,0.00,CLR,,0.00,WeatherDisplay:10.37,2013-02-18 04:11:00,
2013-02-17 23:17:00,15.1,1.0,29.96,WNW,299,7.8,16.1,53,0.00,CLR,,0.00,WeatherDisplay:10.37,2013-02-18 04:17:00,
2013-02-17 23:22:00,14.9,1.2,29.97,West,278,10.6,16.1,54,0.00,CLR,,0.00,WeatherDisplay:10.37,2013-02-18 04:22:00,
2013-02-17 23:27:00,14.9,0.8,29.97,NNW,339,8.7,11.5,53,0.00,CLR,,0.00,WeatherDisplay:10.37,2013-02-18 04:27:00,
2013-02-17 23:32:00,14.9,1.2,29.97,NW,311,8.8,11.5,54,0.00,CLR,,0.00,WeatherDisplay:10.37,2013-02-18 04:32:00,
2013-02-17 23:37:00,14.9,1.2,29.97,North,350,9.4,18.0,54,0.00,CLR,,0.00,WeatherDisplay:10.37,2013-02-18 04:37:00,
2013-02-17 23:43:00,15.1,1.0,29.98,WNW,285,6.4,8.1,53,0.00,CLR,,0.00,WeatherDisplay:10.37,2013-02-18 04:43:00,
2013-02-17 23:48:00,15.1,1.0,29.98,NW,306,8.6,16.1,53,0.00,CLR,,0.00,WeatherDisplay:10.37,2013-02-18 04:48:00,
2013-02-17 23:53:00,15.1,1.0,29.98,NW,306,7.4,12.7,53,0.00,CLR,,0.00,WeatherDisplay:10.37,2013-02-18 04:53:00,
2013-02-17 23:58:00,15.1,1.0,29.98,North,0,7.6,12.7,53,0.00,CLR,,0.00,WeatherDisplay:10.37,2013-02-18 04:58:00,